Fort Drum, New York
Current Conditions -  °F | °C
As of 2:58 AM on Friday 28 Nov 2014 (Local Time) from KGTB Reporting Station
Clear Clear  
Wind Chill: 20°   Ceiling: Unl
Heat Index: 20°   Visibility: 10mi
Dew Point: 19°   Wind: 3mph
Humidity: 99%   Direction: 250°WSW
Pressure: 30.08"   Gusts: NA
Location:  44.04°N, 75.77°W
Report Text: KGTB 280758Z AUTO 25003KT 10SM CLR M07/M07 A3008 RMK AO2 SLP197 T10691071
Loading
Personal Weather Stations






























Interactive Weather Map New forecast layout! Learn more

10-Day Weather Forecast

Advertisements
Track Severe Weather on mobile